createdAt,value
2022-08-25T00:00:23.436Z,2.80
2022-08-25T00:02:56.183Z,3.05
2022-08-25T00:05:33.349Z,2.77
2022-08-25T00:08:04.373Z,3.70
2022-08-25T00:10:38.147Z,3.78
2022-08-25T00:13:08.088Z,3.00
2022-08-25T00:15:39.091Z,2.85
2022-08-25T00:18:19.531Z,2.58
2022-08-25T00:20:49.307Z,2.70
2022-08-25T00:23:18.284Z,2.95
2022-08-25T00:25:47.609Z,3.00
2022-08-25T00:28:16.846Z,2.90
2022-08-25T00:30:45.852Z,2.70
2022-08-25T00:33:14.726Z,2.67
2022-08-25T00:35:44.011Z,2.38
2022-08-25T00:38:12.714Z,3.20
2022-08-25T00:40:41.631Z,3.55
2022-08-25T00:43:09.812Z,2.97
2022-08-25T00:45:41.045Z,3.78
2022-08-25T00:48:09.296Z,3.08
2022-08-25T00:50:37.470Z,2.78
2022-08-25T00:53:07.330Z,2.72
2022-08-25T00:55:39.393Z,2.83
2022-08-25T00:58:17.714Z,3.13
2022-08-25T01:00:50.099Z,2.67
2022-08-25T01:03:20.119Z,3.30
2022-08-25T01:05:49.239Z,2.88
2022-08-25T01:08:21.071Z,2.30
2022-08-25T01:10:50.796Z,3.22
2022-08-25T01:13:22.231Z,2.80
2022-08-25T01:15:54.801Z,2.28
2022-08-25T01:18:24.887Z,2.90
2022-08-25T01:20:55.064Z,2.85
2022-08-25T01:23:24.699Z,3.75
2022-08-25T01:25:52.843Z,3.30
2022-08-25T01:28:21.763Z,3.92
2022-08-25T01:30:50.671Z,3.55
2022-08-25T01:33:19.029Z,3.90
2022-08-25T01:35:48.148Z,3.30
2022-08-25T01:38:17.324Z,3.15
2022-08-25T01:40:45.675Z,3.10
2022-08-25T01:43:13.788Z,2.90
2022-08-25T01:45:46.292Z,2.53
2022-08-25T01:48:15.783Z,2.80
2022-08-25T01:50:44.295Z,2.75
2022-08-25T01:53:27.703Z,2.63
2022-08-25T01:56:06.181Z,2.30
2022-08-25T01:58:41.772Z,2.13
2022-08-25T02:01:18.778Z,2.70
2022-08-25T02:03:49.925Z,2.50
2022-08-25T02:06:28.760Z,2.63
2022-08-25T02:09:02.175Z,2.20
2022-08-25T02:11:30.680Z,2.60
2022-08-25T02:13:59.931Z,2.42
2022-08-25T02:16:32.233Z,2.50
2022-08-25T02:19:01.311Z,2.35
2022-08-25T02:21:30.235Z,2.85
2022-08-25T02:23:59.437Z,2.53
2022-08-25T02:26:29.804Z,2.75
2022-08-25T02:28:58.515Z,2.33
2022-08-25T02:31:27.391Z,2.70
2022-08-25T02:33:57.170Z,2.28
2022-08-25T02:36:25.501Z,2.00
2022-08-25T02:38:53.725Z,2.38
2022-08-25T02:41:25.172Z,2.40
2022-08-25T02:44:01.280Z,2.95
2022-08-25T02:46:31.102Z,3.42
2022-08-25T02:48:59.910Z,2.63
2022-08-25T02:51:30.104Z,2.70
2022-08-25T02:54:03.174Z,2.83
2022-08-25T02:56:33.008Z,2.60
2022-08-25T02:59:02.885Z,2.83
2022-08-25T03:01:32.803Z,2.50
2022-08-25T03:04:03.807Z,2.72
2022-08-25T03:06:35.050Z,2.63
2022-08-25T03:09:03.636Z,2.63
2022-08-25T03:11:32.602Z,3.10
2022-08-25T03:14:00.762Z,2.90
2022-08-25T03:16:29.049Z,2.85
2022-08-25T03:18:58.156Z,2.67
2022-08-25T03:21:27.647Z,2.83
2022-08-25T03:23:56.539Z,3.03
2022-08-25T03:26:43.123Z,2.60
2022-08-25T03:29:13.963Z,2.58
2022-08-25T03:31:45.360Z,3.33
2022-08-25T03:34:18.464Z,2.70
2022-08-25T03:36:50.965Z,2.80
2022-08-25T03:39:20.736Z,2.80
2022-08-25T03:41:49.576Z,2.85
2022-08-25T03:44:19.115Z,3.35
2022-08-25T03:46:51.427Z,2.75
2022-08-25T03:49:23.843Z,2.90
2022-08-25T03:51:54.819Z,2.85
2022-08-25T03:54:25.640Z,2.53
2022-08-25T03:56:54.136Z,2.80
2022-08-25T03:59:22.418Z,2.45
2022-08-25T04:01:55.211Z,2.80
2022-08-25T04:04:24.308Z,2.75
2022-08-25T04:06:53.092Z,2.63
2022-08-25T04:09:21.748Z,2.67
2022-08-25T04:11:53.296Z,2.60
2022-08-25T04:14:23.528Z,2.72
2022-08-25T04:16:54.843Z,2.63
2022-08-25T04:19:23.161Z,2.50
2022-08-25T04:21:51.774Z,3.05
2022-08-25T04:24:25.126Z,2.78
2022-08-25T04:26:53.759Z,2.83
2022-08-25T04:29:25.333Z,2.67
2022-08-25T04:31:54.968Z,2.78
2022-08-25T04:34:30.130Z,3.03
2022-08-25T04:37:03.381Z,3.50
2022-08-25T04:39:31.788Z,2.50
2022-08-25T04:42:01.202Z,2.40
2022-08-25T04:44:30.836Z,2.53
2022-08-25T04:47:02.121Z,3.03
2022-08-25T04:49:30.373Z,2.85
2022-08-25T04:51:58.700Z,2.92
2022-08-25T04:54:28.171Z,2.35
2022-08-25T04:56:58.749Z,2.70
2022-08-25T04:59:30.241Z,2.85
2022-08-25T05:02:03.098Z,2.83
2022-08-25T05:04:33.468Z,3.03
2022-08-25T05:07:02.566Z,2.88
2022-08-25T05:09:32.918Z,2.78
2022-08-25T05:12:03.118Z,3.13
2022-08-25T05:14:32.991Z,2.72
2022-08-25T05:17:02.110Z,3.08
2022-08-25T05:19:30.380Z,2.85
2022-08-25T05:21:58.548Z,2.92
2022-08-25T05:24:28.132Z,3.08
2022-08-25T05:26:56.986Z,2.72
2022-08-25T05:29:25.468Z,2.92
2022-08-25T05:31:54.068Z,3.15
2022-08-25T05:34:22.328Z,3.53
2022-08-25T05:36:51.452Z,3.00
2022-08-25T05:39:19.768Z,2.90
2022-08-25T05:41:48.030Z,2.80
2022-08-25T05:44:20.844Z,2.88
2022-08-25T05:46:49.665Z,2.80
2022-08-25T05:49:17.998Z,3.65
2022-08-25T05:51:46.215Z,3.03
2022-08-25T05:54:14.439Z,3.42
2022-08-25T05:56:42.608Z,2.85
2022-08-25T05:59:11.707Z,3.53
2022-08-25T06:01:58.612Z,3.22
2022-08-25T06:04:27.203Z,3.88
2022-08-25T06:06:58.447Z,3.80
2022-08-25T06:09:29.460Z,3.60
2022-08-25T06:11:57.798Z,3.75
2022-08-25T06:14:26.034Z,4.18
2022-08-25T06:16:54.308Z,3.80
2022-08-25T06:19:23.642Z,5.07
2022-08-25T06:21:57.966Z,3.42
2022-08-25T06:24:27.854Z,3.55
2022-08-25T06:26:57.001Z,4.05
2022-08-25T06:29:26.240Z,3.38
2022-08-25T06:31:54.442Z,3.53
2022-08-25T06:34:24.306Z,3.00
2022-08-25T06:36:55.624Z,3.45
2022-08-25T06:39:24.419Z,3.08
2022-08-25T06:41:56.738Z,3.40
2022-08-25T06:44:30.482Z,3.40
2022-08-25T06:46:58.749Z,3.42
2022-08-25T06:49:35.528Z,3.58
2022-08-25T06:52:04.981Z,3.05
2022-08-25T06:54:33.184Z,3.35
2022-08-25T06:57:01.488Z,3.38
2022-08-25T06:59:32.191Z,3.15
2022-08-25T07:02:03.261Z,3.10
2022-08-25T07:04:33.136Z,3.05
2022-08-25T07:07:01.962Z,3.90
2022-08-25T07:09:30.231Z,2.95
2022-08-25T07:11:58.826Z,3.10
2022-08-25T07:14:29.324Z,3.47
2022-08-25T07:16:58.056Z,3.63
2022-08-25T07:19:27.494Z,3.55
2022-08-25T07:21:55.636Z,3.13
2022-08-25T07:24:24.612Z,2.88
2022-08-25T07:26:53.194Z,3.15
2022-08-25T07:29:31.832Z,2.30
2022-08-25T07:32:02.820Z,2.88
2022-08-25T07:34:52.535Z,2.70
2022-08-25T07:37:48.802Z,2.53
2022-08-25T07:40:17.603Z,2.70
2022-08-25T07:42:46.671Z,2.35
2022-08-25T07:45:20.491Z,2.78
2022-08-25T07:47:51.663Z,2.38
2022-08-25T07:50:21.320Z,2.17
2022-08-25T07:52:55.139Z,2.60
2022-08-25T07:55:25.441Z,2.53
2022-08-25T07:57:57.131Z,2.33
2022-08-25T08:00:30.911Z,7.97
2022-08-25T08:03:00.558Z,3.33
2022-08-25T08:08:01.137Z,2.30
2022-08-25T08:10:54.195Z,2.28
2022-08-25T08:13:20.039Z,2.50
2022-08-25T08:15:55.628Z,2.35
2022-08-25T08:18:24.507Z,2.45
2022-08-25T08:20:53.189Z,2.47
2022-08-25T08:23:27.824Z,2.53
2022-08-25T08:25:56.527Z,2.47
2022-08-25T08:28:27.877Z,3.00
2022-08-25T08:30:56.231Z,2.35
2022-08-25T08:33:25.339Z,2.47
2022-08-25T08:36:08.399Z,3.05
2022-08-25T08:38:40.461Z,2.65
2022-08-25T08:42:11.933Z,2.38
2022-08-25T08:44:46.660Z,2.60
2022-08-25T08:47:33.711Z,2.20
2022-08-25T08:50:37.836Z,2.75
2022-08-25T08:53:11.036Z,2.87
2022-08-25T08:55:52.957Z,2.33
2022-08-25T08:58:35.393Z,2.30
2022-08-25T09:03:44.347Z,2.30
2022-08-25T09:06:22.500Z,2.92
2022-08-25T09:08:52.665Z,3.50
2022-08-25T09:11:51.471Z,2.25
2022-08-25T09:15:14.104Z,2.78
2022-08-25T09:17:54.649Z,2.85
2022-08-25T09:20:48.578Z,2.60
2022-08-25T09:23:34.915Z,2.60
2022-08-25T09:26:27.699Z,2.88
2022-08-25T09:29:28.674Z,2.25
2022-08-25T09:32:00.382Z,2.65
2022-08-25T09:34:33.582Z,3.08
2022-08-25T09:37:03.017Z,3.17
2022-08-25T09:39:31.227Z,2.35
2022-08-25T09:42:03.637Z,3.08
2022-08-25T09:44:38.995Z,4.68
2022-08-25T09:47:24.568Z,2.80
2022-08-25T09:50:04.534Z,3.50
2022-08-25T09:52:38.580Z,4.85
2022-08-25T09:55:13.646Z,3.00
2022-08-25T09:57:52.878Z,3.00
2022-08-25T10:00:34.351Z,2.97
2022-08-25T10:03:22.677Z,2.95
2022-08-25T10:05:58.979Z,3.20
2022-08-25T10:08:39.405Z,3.40
2022-08-25T10:11:15.139Z,2.72
2022-08-25T10:13:47.013Z,3.10
2022-08-25T10:16:30.821Z,3.08
2022-08-25T10:19:26.498Z,3.35
2022-08-25T10:22:08.324Z,3.40
2022-08-25T10:24:44.155Z,2.92
2022-08-25T10:27:35.946Z,3.30
2022-08-25T10:30:40.514Z,3.17
2022-08-25T10:33:08.871Z,2.75
2022-08-25T10:35:55.481Z,3.22
2022-08-25T10:38:36.020Z,3.00
2022-08-25T10:41:41.807Z,3.33
2022-08-25T10:44:53.068Z,2.85
2022-08-25T10:47:37.341Z,3.20
2022-08-25T10:50:29.484Z,3.42
2022-08-25T10:53:28.083Z,3.33
2022-08-25T10:56:07.093Z,2.90
2022-08-25T10:58:59.822Z,2.80
2022-08-25T11:01:45.256Z,2.50
2022-08-25T11:04:29.813Z,3.20
2022-08-25T11:07:09.293Z,2.85
2022-08-25T11:09:41.761Z,3.28
2022-08-25T11:12:16.338Z,3.17
2022-08-25T11:14:57.158Z,2.90
2022-08-25T11:17:27.394Z,2.63
2022-08-25T11:20:07.532Z,3.47
2022-08-25T11:22:53.646Z,3.42
2022-08-25T11:25:35.031Z,2.90
2022-08-25T11:28:22.349Z,3.05
2022-08-25T11:30:52.908Z,4.93
2022-08-25T11:33:24.326Z,2.85
2022-08-25T11:36:13.772Z,2.88
2022-08-25T11:39:28.944Z,3.40
2022-08-25T11:42:26.119Z,3.35
2022-08-25T11:45:16.254Z,2.58
2022-08-25T11:47:53.992Z,4.10
2022-08-25T11:50:54.301Z,2.78
2022-08-25T11:53:30.308Z,2.72
2022-08-25T11:56:04.286Z,2.92
2022-08-25T11:58:50.013Z,2.80
2022-08-25T12:01:40.352Z,2.85
2022-08-25T12:04:42.263Z,2.70
2022-08-25T12:07:20.007Z,2.92
2022-08-25T12:09:53.885Z,3.00
2022-08-25T12:12:35.973Z,3.05
2022-08-25T12:15:26.135Z,2.83
2022-08-25T12:18:18.762Z,3.42
2022-08-25T12:20:58.690Z,3.30
2022-08-25T12:23:56.637Z,3.20
2022-08-25T12:26:46.206Z,3.08
2022-08-25T12:29:33.734Z,3.10
2022-08-25T12:32:46.993Z,3.17
2022-08-25T12:35:42.912Z,3.10
2022-08-25T12:38:15.742Z,3.30
2022-08-25T12:40:45.444Z,3.38
2022-08-25T12:43:14.228Z,3.08
2022-08-25T12:45:51.806Z,3.28
2022-08-25T12:48:27.292Z,2.92
2022-08-25T12:51:19.582Z,3.63
2022-08-25T12:53:57.305Z,3.03
2022-08-25T12:56:37.555Z,3.03
2022-08-25T12:59:23.880Z,3.25
2022-08-25T13:02:03.047Z,3.40
2022-08-25T13:05:20.890Z,2.97
2022-08-25T13:08:02.345Z,3.38
2022-08-25T13:10:48.302Z,3.13
2022-08-25T13:13:37.719Z,3.35
2022-08-25T13:16:18.533Z,2.75
2022-08-25T13:18:51.436Z,3.10
2022-08-25T13:21:24.433Z,3.20
2022-08-25T13:26:48.450Z,3.28
2022-08-25T13:29:23.034Z,3.42
2022-08-25T13:32:09.198Z,2.97
2022-08-25T13:34:42.725Z,3.50
2022-08-25T13:37:29.782Z,3.72
2022-08-25T13:40:10.233Z,3.40
2022-08-25T13:42:42.541Z,3.42
2022-08-25T13:48:20.795Z,3.72
2022-08-25T13:50:43.543Z,3.40
2022-08-25T13:53:25.901Z,3.10
2022-08-25T13:56:02.182Z,3.42
2022-08-25T13:58:45.242Z,3.13
2022-08-25T14:01:48.266Z,3.05
2022-08-25T14:04:26.512Z,3.30
2022-08-25T14:07:20.290Z,3.70
2022-08-25T14:09:56.423Z,4.00
2022-08-25T14:12:37.751Z,3.67
2022-08-25T14:15:12.110Z,3.65
2022-08-25T14:17:43.842Z,3.63
2022-08-25T14:20:33.421Z,3.72
2022-08-25T14:23:05.592Z,3.55
2022-08-25T14:25:40.565Z,3.70
2022-08-25T14:28:14.583Z,3.45
2022-08-25T14:30:47.182Z,3.80
2022-08-25T14:33:17.818Z,3.55
2022-08-25T14:35:51.547Z,3.20
2022-08-25T14:38:22.374Z,3.80
2022-08-25T14:40:51.566Z,4.00
2022-08-25T14:43:20.873Z,3.83
2022-08-25T14:45:52.704Z,3.50
2022-08-25T14:48:28.964Z,3.67
2022-08-25T14:50:59.726Z,4.03
2022-08-25T14:53:28.819Z,3.45
2022-08-25T14:55:59.062Z,3.67
2022-08-25T14:58:33.968Z,3.55
2022-08-25T15:01:03.426Z,3.55
2022-08-25T15:03:43.180Z,3.50
2022-08-25T15:06:17.328Z,3.83
2022-08-25T15:09:04.070Z,3.35
2022-08-25T15:11:33.168Z,3.95
2022-08-25T15:14:03.651Z,5.45
2022-08-25T15:16:39.445Z,4.50
2022-08-25T15:19:10.545Z,3.78
2022-08-25T15:21:39.522Z,4.13
2022-08-25T15:24:10.206Z,3.97
2022-08-25T15:27:00.234Z,3.92
2022-08-25T15:29:31.395Z,3.88
2022-08-25T15:32:01.703Z,3.63
2022-08-25T15:34:33.360Z,4.10
2022-08-25T15:37:09.998Z,3.90
2022-08-25T15:39:41.132Z,3.72
2022-08-25T15:42:12.182Z,4.05
2022-08-25T15:44:42.384Z,3.55
2022-08-25T15:47:23.080Z,3.42
2022-08-25T15:50:01.559Z,3.92
2022-08-25T15:52:39.408Z,3.97
2022-08-25T15:55:15.098Z,3.53
2022-08-25T15:57:46.124Z,3.78
2022-08-25T16:00:16.759Z,3.92
2022-08-25T16:02:46.494Z,4.07
2022-08-25T16:05:16.510Z,3.70
2022-08-25T16:07:51.551Z,4.18
2022-08-25T16:10:20.635Z,3.97
2022-08-25T16:12:51.953Z,3.70
2022-08-25T16:15:23.882Z,3.83
2022-08-25T16:17:58.584Z,3.50
2022-08-25T16:20:30.430Z,3.47
2022-08-25T16:23:02.644Z,3.85
2022-08-25T16:25:32.385Z,4.22
2022-08-25T16:28:00.689Z,3.65
2022-08-25T16:30:28.865Z,3.90
2022-08-25T16:32:57.083Z,4.43
2022-08-25T16:35:25.262Z,4.30
2022-08-25T16:37:53.603Z,3.38
2022-08-25T16:40:24.827Z,4.53
2022-08-25T16:42:55.078Z,3.50
2022-08-25T16:45:24.480Z,3.83
2022-08-25T16:47:55.747Z,3.67
2022-08-25T16:50:24.212Z,4.13
2022-08-25T16:53:11.039Z,3.90
2022-08-25T16:55:39.876Z,4.18
2022-08-25T16:58:13.336Z,3.78
2022-08-25T17:00:44.791Z,3.55
2022-08-25T17:03:16.168Z,3.58
2022-08-25T17:05:45.315Z,4.85
2022-08-25T17:08:29.026Z,3.40
2022-08-25T17:11:06.244Z,3.83
2022-08-25T17:13:37.483Z,3.83
2022-08-25T17:16:06.444Z,4.05
2022-08-25T17:18:35.086Z,4.30
2022-08-25T17:21:24.347Z,3.80
2022-08-25T17:23:57.860Z,3.90
2022-08-25T17:26:29.033Z,3.70
2022-08-25T17:28:59.280Z,3.70
2022-08-25T17:31:28.764Z,3.30
2022-08-25T17:33:59.433Z,3.50
2022-08-25T17:36:27.880Z,3.50
2022-08-25T17:38:57.138Z,3.92
2022-08-25T17:41:25.987Z,3.60
2022-08-25T17:43:54.199Z,4.85
2022-08-25T17:46:22.682Z,4.25
2022-08-25T17:48:51.579Z,4.68
2022-08-25T17:51:20.443Z,6.20
2022-08-25T17:53:50.478Z,5.75
2022-08-25T17:56:27.219Z,6.22
2022-08-25T17:58:57.070Z,6.95
2022-08-25T18:01:29.365Z,4.63
2022-08-25T18:03:59.245Z,4.47
2022-08-25T18:06:29.618Z,7.18
2022-08-25T18:09:01.417Z,4.95
2022-08-25T18:11:30.094Z,4.10
2022-08-25T18:13:59.238Z,3.92
2022-08-25T18:16:28.446Z,4.07
2022-08-25T18:18:57.196Z,4.30
2022-08-25T18:21:25.577Z,4.30
2022-08-25T18:23:59.144Z,4.32
2022-08-25T18:26:28.076Z,4.28
2022-08-25T18:28:56.312Z,3.88
2022-08-25T18:31:25.279Z,3.97
2022-08-25T18:33:53.616Z,4.20
2022-08-25T18:36:25.091Z,4.22
2022-08-25T18:39:13.651Z,4.20
2022-08-25T18:41:42.813Z,4.07
2022-08-25T18:44:15.569Z,3.75
2022-08-25T18:46:45.418Z,3.80
2022-08-25T18:49:17.569Z,3.97
2022-08-25T18:51:48.183Z,3.72
2022-08-25T18:54:22.784Z,4.28
2022-08-25T18:56:53.939Z,4.15
2022-08-25T18:59:23.620Z,4.18
2022-08-25T19:01:54.380Z,3.58
2022-08-25T19:04:31.522Z,4.32
2022-08-25T19:07:01.874Z,4.05
2022-08-25T19:09:32.452Z,4.40
2022-08-25T19:12:01.174Z,3.80
2022-08-25T19:14:29.633Z,4.75
2022-08-25T19:16:58.702Z,4.10
2022-08-25T19:19:31.345Z,3.90
2022-08-25T19:22:02.976Z,3.90
2022-08-25T19:24:32.227Z,3.53
2022-08-25T19:27:02.456Z,3.80
2022-08-25T19:29:31.548Z,3.80
2022-08-25T19:32:01.789Z,3.55
2022-08-25T19:34:35.270Z,4.35
2022-08-25T19:37:05.554Z,3.38
2022-08-25T19:39:35.663Z,3.90
2022-08-25T19:42:08.463Z,4.25
2022-08-25T19:44:56.690Z,3.58
2022-08-25T19:47:25.989Z,3.72
2022-08-25T19:49:55.259Z,4.50
2022-08-25T19:52:24.964Z,4.00
2022-08-25T19:54:55.029Z,3.95
2022-08-25T19:57:28.479Z,3.85
2022-08-25T20:00:24.875Z,4.03
2022-08-25T20:02:53.121Z,4.25
2022-08-25T20:05:24.191Z,4.53
2022-08-25T20:07:54.013Z,3.90
2022-08-25T20:10:24.318Z,4.20
2022-08-25T20:12:55.577Z,4.25
2022-08-25T20:15:24.277Z,4.13
2022-08-25T20:17:56.464Z,3.85
2022-08-25T20:20:25.683Z,5.23
2022-08-25T20:23:19.450Z,4.15
2022-08-25T20:25:47.854Z,3.83
2022-08-25T20:28:18.867Z,4.60
2022-08-25T20:30:47.682Z,4.47
2022-08-25T20:33:22.600Z,4.43
2022-08-25T20:35:52.938Z,4.30
2022-08-25T20:38:21.379Z,6.28
2022-08-25T20:40:49.600Z,4.53
2022-08-25T20:43:17.912Z,4.45
2022-08-25T20:45:49.179Z,4.47
2022-08-25T20:48:18.033Z,3.70
2022-08-25T20:50:46.444Z,4.93
2022-08-25T20:53:27.049Z,4.00
2022-08-25T20:55:55.322Z,4.75
2022-08-25T20:58:23.628Z,4.70
2022-08-25T21:00:54.593Z,4.60
2022-08-25T21:03:22.803Z,4.13
2022-08-25T21:05:54.038Z,4.15
2022-08-25T21:08:23.610Z,4.10
2022-08-25T21:10:52.001Z,4.55
2022-08-25T21:13:20.210Z,3.80
2022-08-25T21:15:51.001Z,4.03
2022-08-25T21:18:19.200Z,4.22
2022-08-25T21:20:47.410Z,3.97
2022-08-25T21:23:15.575Z,4.35
2022-08-25T21:25:43.870Z,4.18
2022-08-25T21:28:13.233Z,3.85
2022-08-25T21:30:44.715Z,4.93
2022-08-25T21:33:15.534Z,3.80
2022-08-25T21:35:44.218Z,4.05
2022-08-25T21:38:15.190Z,3.92
2022-08-25T21:40:45.016Z,4.88
2022-08-25T21:43:13.485Z,4.07
2022-08-25T21:45:46.589Z,4.82
2022-08-25T21:48:15.344Z,4.88
2022-08-25T21:50:43.651Z,5.78
2022-08-25T21:53:12.073Z,5.25
2022-08-25T21:55:42.007Z,5.50
2022-08-25T21:58:10.337Z,4.80
2022-08-25T22:00:38.604Z,4.82
2022-08-25T22:03:10.937Z,4.90
2022-08-25T22:05:43.278Z,4.07
2022-08-25T22:08:14.050Z,4.30
2022-08-25T22:10:45.572Z,4.50
2022-08-25T22:13:13.791Z,4.80
2022-08-25T22:15:41.980Z,4.47
2022-08-25T22:18:10.161Z,4.57
2022-08-25T22:20:39.245Z,4.28
2022-08-25T22:23:09.711Z,4.22
2022-08-25T22:25:48.528Z,4.03
2022-08-25T22:28:17.015Z,4.20
2022-08-25T22:30:45.254Z,3.95
2022-08-25T22:33:13.664Z,4.90
2022-08-25T22:35:41.941Z,5.55
2022-08-25T22:38:12.407Z,5.15
2022-08-25T22:40:41.715Z,4.78
2022-08-25T22:43:10.892Z,4.38
2022-08-25T22:45:39.593Z,3.90
2022-08-25T22:48:08.287Z,4.30
2022-08-25T22:50:37.547Z,4.43
2022-08-25T22:53:05.874Z,4.00
2022-08-25T22:55:34.237Z,4.18
2022-08-25T22:58:02.389Z,5.50
2022-08-25T23:00:31.635Z,4.18
2022-08-25T23:02:59.916Z,5.32
2022-08-25T23:05:29.387Z,5.30
2022-08-25T23:07:57.686Z,4.93
2022-08-25T23:10:26.409Z,4.82
2022-08-25T23:12:55.165Z,4.35
2022-08-25T23:15:23.515Z,5.38
2022-08-25T23:17:52.003Z,5.00
2022-08-25T23:20:44.809Z,4.75
2022-08-25T23:23:14.084Z,4.90
2022-08-25T23:25:42.353Z,5.28
2022-08-25T23:28:10.866Z,5.13
2022-08-25T23:30:40.244Z,5.45
2022-08-25T23:33:15.447Z,5.30
2022-08-25T23:35:47.455Z,5.72
2022-08-25T23:38:15.787Z,5.65
2022-08-25T23:40:44.681Z,6.03
2022-08-25T23:43:13.474Z,5.80
2022-08-25T23:45:41.786Z,6.22
2022-08-25T23:48:10.553Z,5.32
2022-08-25T23:50:49.088Z,5.43
2022-08-25T23:53:22.516Z,5.55
2022-08-25T23:55:54.769Z,5.20
2022-08-25T23:58:24.155Z,5.55
